DAL125 EGPH-EGCC
Flight info
| Callsign | DAL125 |
|---|---|
| Flight time | N/A |
| Altitude | 25000 |
| Route | GOSAM P600 FENIK L612 LAKEY |
| Aircraft | A320/M-SDE3FGHIRWY/LB1 |
Departure
| Time | 2026-04-21 13:32 |
|---|---|
| Airport | Edinburgh Airport (EGPH) |
Arrival
| Time | N/A |
|---|---|
| Airport | Manchester Airport (EGCC) |
| Time | Latitude | Longitude | Altitude | Speed | Heading |
|---|---|---|---|---|---|
| 2026-04-21 12:57 | 55.94801 | -3.36624 | 108 ft | 0 kts | 89° |
| 2026-04-21 13:15 | 55.94801 | -3.36639 | 107 ft | 4 kts | 89° |
| 2026-04-21 13:16 | 55.94801 | -3.36686 | 107 ft | 4 kts | 89° |
| 2026-04-21 13:16 | 55.94800 | -3.36732 | 107 ft | 4 kts | 76° |
| 2026-04-21 13:16 | 55.94789 | -3.36770 | 106 ft | 4 kts | 21° |
| 2026-04-21 13:16 | 55.94777 | -3.36775 | 106 ft | 0 kts | 357° |
| 2026-04-21 13:20 | 55.94779 | -3.36775 | 106 ft | 2 kts | 358° |
| 2026-04-21 13:20 | 55.94787 | -3.36775 | 107 ft | 0 kts | 1° |
| 2026-04-21 13:20 | 55.94793 | -3.36774 | 106 ft | 3 kts | 2° |
| 2026-04-21 13:21 | 55.94832 | -3.36773 | 108 ft | 8 kts | 360° |
| 2026-04-21 13:21 | 55.94896 | -3.36803 | 109 ft | 11 kts | 330° |
| 2026-04-21 13:21 | 55.94915 | -3.36928 | 109 ft | 15 kts | 242° |
| 2026-04-21 13:21 | 55.94864 | -3.37075 | 109 ft | 14 kts | 238° |
| 2026-04-21 13:22 | 55.94806 | -3.37244 | 109 ft | 9 kts | 240° |
| 2026-04-21 13:22 | 55.94773 | -3.37345 | 112 ft | 11 kts | 237° |
| 2026-04-21 13:22 | 55.94728 | -3.37472 | 114 ft | 14 kts | 239° |
| 2026-04-21 13:22 | 55.94677 | -3.37629 | 115 ft | 10 kts | 239° |
| 2026-04-21 13:23 | 55.94635 | -3.37755 | 116 ft | 14 kts | 238° |
| 2026-04-21 13:23 | 55.94573 | -3.37942 | 116 ft | 20 kts | 239° |
| 2026-04-21 13:23 | 55.94507 | -3.38125 | 114 ft | 17 kts | 237° |
| 2026-04-21 13:23 | 55.94441 | -3.38314 | 115 ft | 16 kts | 238° |
| 2026-04-21 13:24 | 55.94393 | -3.38459 | 117 ft | 11 kts | 240° |
| 2026-04-21 13:24 | 55.94351 | -3.38589 | 119 ft | 13 kts | 240° |
| 2026-04-21 13:24 | 55.94307 | -3.38720 | 120 ft | 11 kts | 237° |
| 2026-04-21 13:24 | 55.94284 | -3.38821 | 123 ft | 9 kts | 277° |
| 2026-04-21 13:25 | 55.94318 | -3.38887 | 122 ft | 0 kts | 324° |
| 2026-04-21 13:25 | 55.94320 | -3.38890 | 122 ft | 0 kts | 324° |
| 2026-04-21 13:27 | 55.94324 | -3.38896 | 121 ft | 0 kts | 323° |
| 2026-04-21 13:27 | 55.94325 | -3.38897 | 121 ft | 0 kts | 323° |
| 2026-04-21 13:29 | 55.94327 | -3.38899 | 121 ft | 2 kts | 323° |
| 2026-04-21 13:29 | 55.94355 | -3.38940 | 122 ft | 9 kts | 321° |
| 2026-04-21 13:29 | 55.94410 | -3.38939 | 118 ft | 10 kts | 54° |
| 2026-04-21 13:29 | 55.94440 | -3.38881 | 121 ft | 1 kts | 78° |
| 2026-04-21 13:30 | 55.94442 | -3.38877 | 121 ft | 1 kts | 56° |
| 2026-04-21 13:30 | 55.94443 | -3.38875 | 121 ft | 0 kts | 56° |
| 2026-04-21 13:31 | 55.94446 | -3.38866 | 121 ft | 5 kts | 56° |
| 2026-04-21 13:31 | 55.94596 | -3.38458 | 115 ft | 75 kts | 58° |
| 2026-04-21 13:31 | 55.94970 | -3.37343 | 114 ft | 133 kts | 58° |
| 2026-04-21 13:31 | 55.95473 | -3.35798 | 540 ft | 144 kts | 59° |
| 2026-04-21 13:32 | 55.96012 | -3.34292 | 1289 ft | 144 kts | 51° |
| 2026-04-21 13:32 | 55.96749 | -3.33067 | 1990 ft | 147 kts | 45° |
| 2026-04-21 13:32 | 55.97556 | -3.31774 | 2357 ft | 167 kts | 45° |
| 2026-04-21 13:32 | 55.98481 | -3.30283 | 2669 ft | 190 kts | 45° |
| 2026-04-21 13:33 | 55.99531 | -3.28687 | 3056 ft | 212 kts | 35° |
| 2026-04-21 13:33 | 56.01056 | -3.28056 | 3443 ft | 247 kts | 356° |
| 2026-04-21 13:33 | 56.02663 | -3.29405 | 4115 ft | 270 kts | 319° |
| 2026-04-21 13:33 | 56.03615 | -3.32339 | 4928 ft | 283 kts | 283° |
| 2026-04-21 13:34 | 56.03623 | -3.35934 | 5702 ft | 290 kts | 259° |
| 2026-04-21 13:34 | 56.03130 | -3.39368 | 6003 ft | 284 kts | 249° |
| 2026-04-21 13:34 | 56.02418 | -3.42692 | 6530 ft | 285 kts | 237° |
| 2026-04-21 13:34 | 56.02094 | -3.43800 | 6847 ft | 280 kts | 231° |
| 2026-04-21 13:35 | 56.01786 | -3.44626 | 7262 ft | 257 kts | 223° |
| 2026-04-21 13:35 | 56.00780 | -3.46610 | 8422 ft | 191 kts | 224° |
| 2026-04-21 13:35 | 55.99865 | -3.48597 | 7965 ft | 234 kts | 220° |
| 2026-04-21 13:36 | 55.98885 | -3.51054 | 8502 ft | 235 kts | 244° |
| 2026-04-21 13:36 | 55.98384 | -3.53855 | 8970 ft | 262 kts | 257° |
| 2026-04-21 13:36 | 55.98280 | -3.57334 | 8919 ft | 293 kts | 269° |
| 2026-04-21 13:36 | 55.98294 | -3.61019 | 8908 ft | 299 kts | 269° |
| 2026-04-21 13:37 | 55.98308 | -3.64752 | 9080 ft | 306 kts | 269° |
| 2026-04-21 13:37 | 55.98276 | -3.68555 | 10021 ft | 305 kts | 263° |
| 2026-04-21 13:37 | 55.97955 | -3.72290 | 10827 ft | 308 kts | 255° |
| 2026-04-21 13:37 | 55.97421 | -3.76138 | 11087 ft | 331 kts | 252° |
| 2026-04-21 13:38 | 55.96756 | -3.80220 | 11354 ft | 351 kts | 251° |
| 2026-04-21 13:38 | 55.96045 | -3.84441 | 11956 ft | 359 kts | 251° |
| 2026-04-21 13:38 | 55.95340 | -3.88741 | 12670 ft | 363 kts | 251° |
| 2026-04-21 13:38 | 55.94658 | -3.93113 | 13385 ft | 368 kts | 252° |
| 2026-04-21 13:39 | 55.93943 | -3.97538 | 14081 ft | 371 kts | 246° |
| 2026-04-21 13:39 | 55.92722 | -4.01559 | 14722 ft | 370 kts | 229° |
| 2026-04-21 13:39 | 55.90914 | -4.04781 | 15340 ft | 367 kts | 213° |
| 2026-04-21 13:39 | 55.88841 | -4.07430 | 15975 ft | 369 kts | 211° |
| 2026-04-21 13:40 | 55.86733 | -4.10096 | 16603 ft | 373 kts | 211° |
| 2026-04-21 13:40 | 55.84607 | -4.12787 | 17223 ft | 376 kts | 212° |
| 2026-04-21 13:40 | 55.82461 | -4.15502 | 17832 ft | 380 kts | 211° |
| 2026-04-21 13:40 | 55.80324 | -4.18206 | 18459 ft | 383 kts | 212° |
| 2026-04-21 13:41 | 55.78139 | -4.20949 | 19024 ft | 386 kts | 210° |
| 2026-04-21 13:41 | 55.75764 | -4.23176 | 19552 ft | 384 kts | 197° |
| 2026-04-21 13:41 | 55.73212 | -4.24459 | 20089 ft | 382 kts | 186° |
| 2026-04-21 13:41 | 55.70573 | -4.24840 | 20638 ft | 379 kts | 175° |
| 2026-04-21 13:42 | 55.67935 | -4.24330 | 21187 ft | 378 kts | 164° |
| 2026-04-21 13:42 | 55.65429 | -4.22985 | 21723 ft | 377 kts | 154° |
| 2026-04-21 13:42 | 55.63853 | -4.21666 | 22073 ft | 376 kts | 148° |
| 2026-04-21 13:42 | 55.60879 | -4.18731 | 23625 ft | 354 kts | 148° |
| 2026-04-21 13:43 | 55.59468 | -4.17350 | 24405 ft | 345 kts | 148° |
| 2026-04-21 13:43 | 55.57357 | -4.15288 | 24817 ft | 351 kts | 148° |
| 2026-04-21 13:43 | 55.55187 | -4.13163 | 24950 ft | 364 kts | 148° |
| 2026-04-21 13:43 | 55.52939 | -4.10968 | 25069 ft | 376 kts | 148° |
| 2026-04-21 13:44 | 55.50604 | -4.08697 | 25204 ft | 387 kts | 148° |
| 2026-04-21 13:44 | 55.48231 | -4.06388 | 25424 ft | 393 kts | 149° |
| 2026-04-21 13:44 | 55.45833 | -4.04057 | 25496 ft | 393 kts | 149° |
| 2026-04-21 13:44 | 55.43426 | -4.01725 | 25502 ft | 394 kts | 149° |
| 2026-04-21 13:45 | 55.41034 | -3.99412 | 25509 ft | 394 kts | 149° |
| 2026-04-21 13:45 | 55.38630 | -3.97091 | 25501 ft | 394 kts | 149° |
| 2026-04-21 13:45 | 55.36224 | -3.94772 | 25501 ft | 393 kts | 149° |
| 2026-04-21 13:45 | 55.33827 | -3.92458 | 25504 ft | 394 kts | 149° |
| 2026-04-21 13:46 | 55.31399 | -3.90122 | 25500 ft | 394 kts | 149° |
| 2026-04-21 13:46 | 55.29020 | -3.87836 | 25500 ft | 394 kts | 149° |
| 2026-04-21 13:46 | 55.26620 | -3.85531 | 25498 ft | 394 kts | 149° |
| 2026-04-21 13:46 | 55.24191 | -3.83197 | 25500 ft | 394 kts | 149° |
| 2026-04-21 13:47 | 55.21789 | -3.80889 | 25491 ft | 394 kts | 149° |
| 2026-04-21 13:47 | 55.19415 | -3.78614 | 25493 ft | 394 kts | 149° |
| 2026-04-21 13:47 | 55.17011 | -3.76317 | 25487 ft | 394 kts | 149° |
| 2026-04-21 13:47 | 55.14577 | -3.74000 | 25484 ft | 394 kts | 149° |
| 2026-04-21 13:48 | 55.12163 | -3.71705 | 25486 ft | 394 kts | 149° |
| 2026-04-21 13:48 | 55.09765 | -3.69422 | 25482 ft | 394 kts | 149° |
| 2026-04-21 13:48 | 55.07369 | -3.67140 | 25480 ft | 394 kts | 149° |
| 2026-04-21 13:48 | 55.04971 | -3.64861 | 25480 ft | 394 kts | 149° |
| 2026-04-21 13:49 | 55.02540 | -3.62557 | 25480 ft | 394 kts | 149° |
| 2026-04-21 13:49 | 55.00149 | -3.60294 | 25479 ft | 394 kts | 149° |
| 2026-04-21 13:49 | 54.97745 | -3.58019 | 25473 ft | 394 kts | 150° |
| 2026-04-21 13:49 | 54.95308 | -3.55718 | 25467 ft | 394 kts | 149° |
| 2026-04-21 13:50 | 54.92887 | -3.53440 | 25471 ft | 394 kts | 150° |
| 2026-04-21 13:50 | 54.90468 | -3.51171 | 25466 ft | 395 kts | 150° |
| 2026-04-21 13:50 | 54.88056 | -3.48908 | 25467 ft | 395 kts | 149° |
| 2026-04-21 13:50 | 54.85637 | -3.46637 | 25469 ft | 395 kts | 150° |
| 2026-04-21 13:51 | 54.83220 | -3.44366 | 25467 ft | 395 kts | 150° |
| 2026-04-21 13:51 | 54.80803 | -3.42096 | 25468 ft | 395 kts | 150° |
| 2026-04-21 13:51 | 54.78384 | -3.39832 | 25468 ft | 395 kts | 150° |
| 2026-04-21 13:51 | 54.75968 | -3.37580 | 25463 ft | 395 kts | 150° |
| 2026-04-21 13:52 | 54.73533 | -3.35313 | 25457 ft | 396 kts | 150° |
| 2026-04-21 13:52 | 54.71088 | -3.33113 | 25459 ft | 396 kts | 152° |
| 2026-04-21 13:52 | 54.68603 | -3.31104 | 25460 ft | 397 kts | 154° |
| 2026-04-21 13:52 | 54.66061 | -3.29207 | 25457 ft | 397 kts | 155° |
| 2026-04-21 13:53 | 54.63507 | -3.27373 | 25453 ft | 397 kts | 156° |
| 2026-04-21 13:53 | 54.60958 | -3.25554 | 25460 ft | 399 kts | 156° |
| 2026-04-21 13:53 | 54.58390 | -3.23700 | 25467 ft | 399 kts | 155° |
| 2026-04-21 13:53 | 54.55840 | -3.21830 | 25459 ft | 400 kts | 155° |
| 2026-04-21 13:54 | 54.53278 | -3.19928 | 25456 ft | 399 kts | 155° |
| 2026-04-21 13:54 | 54.50769 | -3.18050 | 25453 ft | 390 kts | 155° |
| 2026-04-21 13:54 | 54.48244 | -3.16156 | 25115 ft | 387 kts | 155° |
| 2026-04-21 13:54 | 54.45798 | -3.14325 | 25022 ft | 383 kts | 155° |
| 2026-04-21 13:55 | 54.43347 | -3.12495 | 24756 ft | 383 kts | 155° |
| 2026-04-21 13:55 | 54.40904 | -3.10677 | 24187 ft | 382 kts | 155° |
| 2026-04-21 13:55 | 54.38466 | -3.08866 | 23545 ft | 381 kts | 155° |
| 2026-04-21 13:55 | 54.36046 | -3.07075 | 22976 ft | 378 kts | 154° |
| 2026-04-21 13:56 | 54.33615 | -3.05280 | 22451 ft | 375 kts | 154° |
| 2026-04-21 13:56 | 54.31226 | -3.03519 | 21937 ft | 372 kts | 154° |
| 2026-04-21 13:56 | 54.28853 | -3.01774 | 21431 ft | 369 kts | 154° |
| 2026-04-21 13:56 | 54.26504 | -3.00050 | 20952 ft | 366 kts | 154° |
| 2026-04-21 13:57 | 54.24200 | -2.98296 | 20531 ft | 361 kts | 150° |
| 2026-04-21 13:57 | 54.22068 | -2.96096 | 20070 ft | 355 kts | 144° |
| 2026-04-21 13:57 | 54.19973 | -2.93731 | 19255 ft | 363 kts | 144° |
| 2026-04-21 13:57 | 54.17864 | -2.91348 | 18614 ft | 365 kts | 144° |
| 2026-04-21 13:58 | 54.15771 | -2.88994 | 17942 ft | 355 kts | 144° |
| 2026-04-21 13:58 | 54.13744 | -2.86725 | 17342 ft | 343 kts | 144° |
| 2026-04-21 13:58 | 54.11779 | -2.84532 | 16758 ft | 333 kts | 144° |
| 2026-04-21 13:58 | 54.09867 | -2.82401 | 16194 ft | 323 kts | 144° |
| 2026-04-21 13:59 | 54.08014 | -2.80333 | 15642 ft | 315 kts | 144° |
| 2026-04-21 13:59 | 54.06199 | -2.78305 | 15103 ft | 308 kts | 144° |
| 2026-04-21 13:59 | 54.04429 | -2.76333 | 14566 ft | 302 kts | 143° |
| 2026-04-21 13:59 | 54.02664 | -2.74370 | 14029 ft | 296 kts | 144° |
| 2026-04-21 14:00 | 54.00961 | -2.72477 | 13499 ft | 289 kts | 144° |
| 2026-04-21 14:00 | 53.99306 | -2.70636 | 13003 ft | 281 kts | 144° |
| 2026-04-21 14:00 | 53.97687 | -2.68836 | 12526 ft | 277 kts | 143° |
| 2026-04-21 14:00 | 53.96080 | -2.67049 | 12174 ft | 271 kts | 143° |
| 2026-04-21 14:01 | 53.94494 | -2.65286 | 12107 ft | 273 kts | 143° |
| 2026-04-21 14:01 | 53.92895 | -2.63511 | 12039 ft | 275 kts | 143° |
| 2026-04-21 14:01 | 53.91325 | -2.61773 | 11932 ft | 265 kts | 143° |
| 2026-04-21 14:01 | 53.89806 | -2.60093 | 11815 ft | 256 kts | 143° |
| 2026-04-21 14:02 | 53.88806 | -2.58991 | 11736 ft | 252 kts | 144° |
| 2026-04-21 14:02 | 53.86875 | -2.56860 | 11595 ft | 249 kts | 143° |
| 2026-04-21 14:02 | 53.85419 | -2.55249 | 11483 ft | 249 kts | 143° |
| 2026-04-21 14:03 | 53.82531 | -2.52058 | 10870 ft | 254 kts | 143° |
| 2026-04-21 14:03 | 53.81045 | -2.50421 | 10447 ft | 257 kts | 143° |
| 2026-04-21 14:03 | 53.79535 | -2.48763 | 9982 ft | 259 kts | 143° |
| 2026-04-21 14:03 | 53.78015 | -2.47097 | 9543 ft | 260 kts | 144° |
| 2026-04-21 14:04 | 53.76494 | -2.45434 | 9103 ft | 261 kts | 143° |
| 2026-04-21 14:04 | 53.74970 | -2.43766 | 8694 ft | 262 kts | 143° |
| 2026-04-21 14:04 | 53.73433 | -2.42082 | 8265 ft | 262 kts | 143° |
| 2026-04-21 14:04 | 53.71905 | -2.40410 | 7836 ft | 261 kts | 143° |
| 2026-04-21 14:05 | 53.70394 | -2.38758 | 7600 ft | 254 kts | 143° |
| 2026-04-21 14:05 | 53.68946 | -2.37182 | 7493 ft | 240 kts | 143° |
| 2026-04-21 14:05 | 53.67575 | -2.35716 | 7381 ft | 232 kts | 147° |
| 2026-04-21 14:05 | 53.66072 | -2.34716 | 7296 ft | 236 kts | 160° |
| 2026-04-21 14:06 | 53.64429 | -2.34228 | 7237 ft | 238 kts | 165° |
| 2026-04-21 14:06 | 53.62789 | -2.33774 | 7175 ft | 238 kts | 165° |
| 2026-04-21 14:06 | 53.61176 | -2.33329 | 7083 ft | 230 kts | 165° |
| 2026-04-21 14:06 | 53.59717 | -2.32926 | 7010 ft | 227 kts | 164° |
| 2026-04-21 14:07 | 53.58145 | -2.32493 | 6927 ft | 227 kts | 164° |
| 2026-04-21 14:07 | 53.56594 | -2.32056 | 6839 ft | 226 kts | 164° |
| 2026-04-21 14:07 | 53.55042 | -2.31615 | 6758 ft | 226 kts | 164° |